• Join FlightAware (Why Join?)
  • Login
  • US Flag 
10:13AM EDT


 

Airport Tracker/Info


-or-


 

Live Flight TrackerFlight Track Log ✈ N350BB ✈ 26-Oct-2013 ✈ 0D8 - KLOT

Flight Track Log - Related Links

Times and Time Zones

All times are in EDT time to prevent confusion due to time zone crossing. See the N350BB flight status page for this flight to view local times or setup timezone preferences in your user account.

Time Position Orientation Groundspeed Altitude Reporting Facility
EDT Latitude Longitude Course Direction KTS MPH feet Rate Location/Type
05:38PM 45.0194 -99.7408 109° East 230 265 9,500  Level Minneapolis Center
05:39PM 44.9997 -99.6578 109° East 228 262 12,000 2,280 Climbing Minneapolis Center
05:40PM 44.9789 -99.5733 109° East 227 261 14,200 2,100 Climbing Minneapolis Center
05:41PM 44.9581 -99.4858 109° East 232 267 16,400 1,860 Climbing Minneapolis Center
05:42PM 44.9369 -99.3986 109° East 234 269 18,100 1,800 Climbing Minneapolis Center
05:43PM 44.8289 -99.3029 108° East  Level FlightAware Approximate
05:43PM 44.9156 -99.3106 109° East 237 273 20,100  Level Minneapolis Center
05:44PM 44.8944 -99.2231 109° East 236 272 21,800 1,680 Climbing Minneapolis Center
05:46PM 44.8731 -99.1342 109° East 238 274 23,600 1,500 Climbing Minneapolis Center
05:47PM 44.8525 -99.0444 108° East 239 275 24,900 1,440 Climbing Minneapolis Center
05:48PM 44.8292 -98.9531 110° East 246 283 26,600 1,560 Climbing Minneapolis Center
05:49PM 44.8028 -98.8469 109° East 241 277 28,100 1,140 Climbing Minneapolis Center
05:50PM 44.7800 -98.7556 109° East 245 282 29,000 420 Climbing Minneapolis Center
05:51PM 44.7536 -98.6506 109° East 272 313 29,000  Level Minneapolis Center
05:52PM 44.7236 -98.5333 110° East 307 353 29,000  Level Minneapolis Center
05:53PM 44.6925 -98.4128 110° East 322 371 29,000  Level Minneapolis Center
05:54PM 44.6625 -98.2869 108° East 330 380 29,000  Level Minneapolis Center
05:55PM 44.6308 -98.1631 110° East 336 387 29,000  Level Minneapolis Center
05:56PM 44.5989 -98.0422 110° East 332 382 29,000  Level Minneapolis Center
05:57PM 44.5675 -97.9189 110° East 335 386 29,000  Level Minneapolis Center
05:58PM 44.5347 -97.7942 110° East 341 392 29,000  Level Minneapolis Center
05:59PM 44.4958 -97.6461 110° East 339 390 29,000  Level Minneapolis Center
06:00PM 44.4636 -97.5233 110° East 338 389 29,000  Level Minneapolis Center
06:01PM 44.4308 -97.4003 110° East 337 388 29,000  Level Minneapolis Center
06:02PM 44.3992 -97.2769 110° East 338 389 29,000  Level Minneapolis Center
06:03PM 44.3653 -97.1519 111° Southeast 343 395 29,000  Level Minneapolis Center
06:04PM 44.3328 -97.0306 110° East 338 389 29,000  Level Minneapolis Center
06:05PM 44.2989 -96.9064 111° Southeast 341 392 29,000  Level Minneapolis Center
06:06PM 44.2658 -96.7839 111° Southeast 340 391 29,000  Level Minneapolis Center
06:07PM 44.2319 -96.6611 111° Southeast 340 391 29,000  Level Minneapolis Center
06:08PM 44.1925 -96.5153 111° Southeast 338 389 29,000  Level Minneapolis Center
06:09PM 44.1592 -96.3939 111° Southeast 339 390 29,000  Level Minneapolis Center
06:10PM 44.1261 -96.2758 111° Southeast 337 388 29,000  Level Minneapolis Center
06:11PM 44.0931 -96.1569 111° Southeast 339 390 29,000  Level Minneapolis Center
06:12PM 44.0594 -96.0364 111° Southeast 340 391 29,000  Level Minneapolis Center
06:13PM 44.0194 -95.8922 111° Southeast 337 388 29,000  Level Minneapolis Center
06:14PM 43.9856 -95.7708 111° Southeast 340 391 29,000  Level Minneapolis Center
06:15PM 43.9508 -95.6506 112° Southeast 337 388 29,000  Level Minneapolis Center
06:16PM 43.9167 -95.5297 111° Southeast 338 389 29,000  Level Minneapolis Center
06:17PM 43.8819 -95.4097 112° Southeast 337 388 29,000  Level Minneapolis Center
06:18PM 43.8472 -95.2867 111° Southeast 343 395 29,000  Level Minneapolis Center
06:19PM 43.8125 -95.1672 112° Southeast 339 390 29,000  Level Minneapolis Center
06:20PM 43.7778 -95.0483 112° Southeast 335 386 29,000  Level Minneapolis Center
06:21PM 43.7425 -94.9253 112° Southeast 344 396 29,000  Level Minneapolis Center
06:22PM 43.7006 -94.7808 112° Southeast 340 391 29,000  Level Minneapolis Center
06:23PM 43.6642 -94.6592 112° Southeast 343 395 29,000  Level Minneapolis Center
06:24PM 43.6286 -94.5389 112° Southeast 340 391 29,000  Level Minneapolis Center
06:25PM 43.5922 -94.4197 113° Southeast 339 390 29,000  Level Minneapolis Center
06:26PM 43.5572 -94.2994 112° Southeast 339 390 29,000  Level Minneapolis Center
06:27PM 43.5236 -94.1889 113° Southeast 341 392 29,000  Level Minneapolis Center
06:28PM 43.4800 -94.0458 113° Southeast 341 392 29,000  Level Minneapolis Center
06:29PM 43.4447 -93.9267 112° Southeast 340 391 29,000  Level Minneapolis Center
06:31PM 43.4086 -93.8081 113° Southeast 339 390 29,000  Level Minneapolis Center
06:32PM 43.3731 -93.6906 113° Southeast 337 388 29,000  Level Minneapolis Center
06:33PM 43.3367 -93.5739 113° Southeast 335 386 29,000  Level Minneapolis Center
06:34PM 43.3006 -93.4561 113° Southeast 337 388 29,000  Level Minneapolis Center
06:35PM 43.2556 -93.3150 114° Southeast 338 389 29,000  Level Minneapolis Center
06:36PM 43.2189 -93.1956 113° Southeast 341 392 29,000  Level Minneapolis Center
06:37PM 43.1811 -93.0750 113° Southeast 347 399 29,000  Level Minneapolis Center
06:38PM 43.1436 -92.9561 113° Southeast 344 396 29,000  Level Minneapolis Center
06:39PM 43.1061 -92.8386 114° Southeast 341 392 29,000  Level Minneapolis Center
06:40PM 43.0686 -92.7211 114° Southeast 340 391 29,000  Level Minneapolis Center
06:41PM 43.0231 -92.5797 114° Southeast 341 392 29,000  Level Minneapolis Center
06:41PM 42.9986 -92.5083 115° Southeast 342 394 29,000  Level Chicago Center
06:42PM 42.9606 -92.3900 114° Southeast 343 395 29,000  Level Chicago Center
06:43PM 42.9217 -92.2717 114° Southeast 344 396 29,000  Level Chicago Center
06:44PM 42.8850 -92.1542 113° Southeast 343 395 29,000  Level Chicago Center
06:46PM 42.8467 -92.0369 114° Southeast 343 395 29,000  Level Chicago Center
06:47PM 42.8006 -91.8964 114° Southeast 343 395 29,000  Level Chicago Center
06:48PM 42.7633 -91.7794 113° Southeast 342 394 29,000  Level Chicago Center
06:49PM 42.7206 -91.6550 115° Southeast 339 390 29,000  Level Chicago Center
06:50PM 42.6961 -91.5533 108° East 344 396 29,000 -120 Level Chicago Center
06:51PM 42.6700 -91.4111 104° East 328 377 28,800 -720 Descending Chicago Center
06:52PM 42.6464 -91.2842 104° East 343 395 27,600 -1,200 Descending Chicago Center
06:53PM 42.6189 -91.1492 105° East 370 426 26,400 -1,260 Descending Chicago Center
06:54PM 42.5939 -91.0164 104° East 369 425 25,100 -1,260 Descending Chicago Center
06:55PM 42.5697 -90.8828 104° East 368 423 23,900 -1,260 Descending Chicago Center
06:56PM 42.5422 -90.7514 106° East 367 422 22,600 -1,440 Descending Chicago Center
06:57PM 42.5117 -90.5939 105° East 363 418 21,000 -1,440 Descending Chicago Center
06:58PM 42.4856 -90.4628 105° East 364 419 19,700 -1,320 Descending Chicago Center
06:59PM 42.4592 -90.3317 105° East 364 419 18,400 -1,260 Descending Chicago Center
07:00PM 42.4336 -90.2008 105° East 363 418 17,200 -1,260 Descending Chicago Center
07:01PM 42.4067 -90.0697 106° East 364 419 15,900 -1,320 Descending Chicago Center
07:02PM 42.3814 -89.9419 105° East 357 411 14,600 -1,320 Descending Chicago Center
07:03PM 42.3536 -89.8144 106° East 343 395 13,300 -1,440 Descending Chicago Center
07:04PM 42.3258 -89.6733 105° East 328 377 11,700 -1,440 Descending Chicago Center
07:05PM 42.3003 -89.5569 106° East 324 373 10,400 -840 Descending Chicago Center
07:06PM 42.2778 -89.4450 105° East 312 359 10,000 -240 Descending Chicago Center
07:07PM 42.2567 -89.3433 106° East 287 330 10,000  Level Chicago Center
07:08PM 42.2347 -89.2425 106° East 282 325 10,000 -540 Level Chicago Center
07:09PM 42.1914 -89.1544 124° Southeast 301 346 8,900 -1,200 Descending Chicago Center
07:10PM 42.1325 -89.0744 135° Southeast 300 345 7,600 -1,320 Descending Chicago Center
07:11PM 42.0756 -89.0017 136° Southeast 288 331 6,300 -1,260 Descending Chicago Center
07:12PM 42.0192 -88.9256 135° Southeast 282 325 5,100 -660 Descending Chicago Center
07:13PM 41.9689 -88.8231 123° Southeast 279 321 5,000 -60 Descending Chicago Center
07:14PM 41.9258 -88.7367 124° Southeast 278 320 5,000  Level Chicago Center
07:15PM 41.8836 -88.6503 123° Southeast 279 321 5,000 -180 Level Chicago Center
07:16PM 41.8406 -88.5642 124° Southeast 279 321 4,700 -540 Descending Chicago Center
07:17PM 41.7983 -88.4800 124° Southeast 277 319 4,000 -360 Descending Chicago Center
07:18PM 41.7569 -88.3969 124° Southeast 273 314 4,000 -120 Level Chicago Center
07:19PM 41.7158 -88.3136 123° Southeast 270 311 3,800 -120 Descending Chicago Center
07:20PM 41.6767 -88.2322 123° Southeast 270 311 3,800  Level Chicago Center